Time,TemperatureF,DewpointF,PressureIn,WindDirection,WindDirectionDegrees,WindSpeedMPH,WindSpeedGustMPH,Humidity,HourlyPrecipIn,Conditions,Clouds,dailyrainin,SoftwareType,DateUTC
2013-01-14 00:01:00,43.5,42.7,29.15,NNW,341,0.0,0.0,97,0.00,,,0.00,VWS V14.01,2013-01-14 05:01:00,
2013-01-14 00:06:00,43.5,42.7,29.15,NNW,341,0.0,0.0,97,0.00,,,0.00,VWS V14.01,2013-01-14 05:06:00,
2013-01-14 00:07:00,43.5,42.7,29.15,NNW,341,0.0,0.0,97,0.00,,,0.00,VWS V14.01,2013-01-14 05:07:00,
2013-01-14 00:08:00,43.5,42.7,29.15,NNW,341,0.0,0.0,97,0.00,,,0.00,VWS V14.01,2013-01-14 05:08:00,
2013-01-14 00:09:00,43.5,42.7,29.15,NNW,341,0.0,0.0,97,0.00,,,0.00,VWS V14.01,2013-01-14 05:09:00,
2013-01-14 00:15:00,43.5,42.7,29.18,NNW,341,0.0,0.0,97,0.00,,,0.00,VWS V14.01,2013-01-14 05:15:00,
2013-01-14 00:21:00,43.7,42.9,29.18,NNW,341,0.0,0.0,97,0.00,,,0.00,VWS V14.01,2013-01-14 05:21:00,
2013-01-14 00:26:00,43.7,42.9,29.18,NNW,341,0.0,0.0,97,0.00,,,0.00,VWS V14.01,2013-01-14 05:26:00,
2013-01-14 00:32:00,43.7,42.9,29.18,NNW,341,0.0,0.0,97,0.00,,,0.00,VWS V14.01,2013-01-14 05:32:00,
2013-01-14 00:37:00,43.7,42.9,29.18,NNW,341,0.0,0.0,97,0.00,,,0.00,VWS V14.01,2013-01-14 05:37:00,
2013-01-14 00:43:00,43.7,42.9,29.18,NNW,341,0.0,0.0,97,0.00,,,0.00,VWS V14.01,2013-01-14 05:43:00,
2013-01-14 00:48:00,43.7,42.9,29.15,NNW,341,0.0,0.0,97,0.00,,,0.00,VWS V14.01,2013-01-14 05:48:00,
2013-01-14 00:54:00,43.7,42.9,29.15,NNW,341,0.0,0.0,97,0.00,,,0.00,VWS V14.01,2013-01-14 05:54:00,
2013-01-14 00:59:00,43.9,43.1,29.15,NNW,341,0.0,0.0,97,0.00,,,0.00,VWS V14.01,2013-01-14 05:59:00,
2013-01-14 01:05:00,43.9,43.1,29.15,NNW,341,0.0,0.0,97,0.00,,,0.00,VWS V14.01,2013-01-14 06:05:00,
2013-01-14 01:11:00,43.9,43.1,29.15,NNW,341,0.0,0.0,97,0.00,,,0.00,VWS V14.01,2013-01-14 06:11:00,
2013-01-14 01:16:00,43.9,43.1,29.15,NNW,341,0.0,0.0,97,0.00,,,0.00,VWS V14.01,2013-01-14 06:16:00,
2013-01-14 01:22:00,43.9,43.1,29.15,NNW,341,0.0,0.0,97,0.00,,,0.00,VWS V14.01,2013-01-14 06:22:00,
2013-01-14 01:27:00,43.9,43.1,29.15,NNW,341,0.0,0.0,97,0.00,,,0.00,VWS V14.01,2013-01-14 06:27:00,
2013-01-14 01:33:00,44.1,43.3,29.18,NNW,341,0.0,0.0,97,0.00,,,0.00,VWS V14.01,2013-01-14 06:33:00,
2013-01-14 01:38:00,44.1,43.3,29.18,NNW,341,0.0,0.0,97,0.00,,,0.00,VWS V14.01,2013-01-14 06:38:00,
2013-01-14 01:44:00,44.1,43.3,29.18,NNW,341,0.0,0.0,97,0.00,,,0.00,VWS V14.01,2013-01-14 06:44:00,
2013-01-14 01:49:00,44.1,43.3,29.18,NNW,341,0.0,0.0,97,0.00,,,0.00,VWS V14.01,2013-01-14 06:49:00,
2013-01-14 01:55:00,44.1,43.3,29.18,NNW,341,0.0,0.0,97,0.00,,,0.00,VWS V14.01,2013-01-14 06:55:00,
2013-01-14 02:01:00,44.1,43.3,29.18,NNW,341,0.0,0.0,97,0.00,,,0.00,VWS V14.01,2013-01-14 07:01:00,
2013-01-14 02:06:00,44.1,43.3,29.18,NNW,341,0.0,0.0,97,0.00,,,0.00,VWS V14.01,2013-01-14 07:06:00,
2013-01-14 02:12:00,44.1,43.3,29.18,NNW,341,0.0,0.0,97,0.00,,,0.00,VWS V14.01,2013-01-14 07:12:00,
2013-01-14 02:17:00,44.1,43.3,29.18,NNW,341,0.0,0.0,97,0.00,,,0.00,VWS V14.01,2013-01-14 07:17:00,
2013-01-14 02:23:00,44.1,43.3,29.18,NNW,341,0.0,0.0,97,0.00,,,0.00,VWS V14.01,2013-01-14 07:23:00,
2013-01-14 02:28:00,44.2,43.4,29.18,NNW,341,0.0,0.0,97,0.00,,,0.00,VWS V14.01,2013-01-14 07:28:00,
2013-01-14 02:34:00,44.2,43.4,29.18,NNW,341,0.0,0.0,97,0.00,,,0.00,VWS V14.01,2013-01-14 07:34:00,
2013-01-14 02:39:00,44.2,43.4,29.18,NNW,341,0.0,0.0,97,0.00,,,0.00,VWS V14.01,2013-01-14 07:39:00,
2013-01-14 02:45:00,44.2,43.4,29.18,NNW,341,0.0,0.0,97,0.00,,,0.00,VWS V14.01,2013-01-14 07:45:00,
2013-01-14 02:51:00,44.4,43.6,29.18,NNW,341,0.0,0.0,97,0.00,,,0.00,VWS V14.01,2013-01-14 07:51:00,
2013-01-14 02:56:00,44.2,43.4,29.18,NNW,341,0.0,0.0,97,0.00,,,0.00,VWS V14.01,2013-01-14 07:56:00,
2013-01-14 03:01:00,44.2,43.4,29.18,NNW,341,0.0,0.0,97,0.00,,,0.00,VWS V14.01,2013-01-14 08:01:00,
2013-01-14 03:07:00,44.2,43.4,29.18,NNW,341,0.0,0.0,97,0.00,,,0.00,VWS V14.01,2013-01-14 08:07:00,
2013-01-14 03:13:00,44.2,43.4,29.18,NNW,341,0.0,0.0,97,0.00,,,0.00,VWS V14.01,2013-01-14 08:13:00,
2013-01-14 03:18:00,44.2,43.4,29.15,NNW,341,0.0,0.0,97,0.00,,,0.00,VWS V14.01,2013-01-14 08:18:00,
2013-01-14 03:24:00,44.4,43.6,29.15,NNW,341,0.0,0.0,97,0.00,,,0.00,VWS V14.01,2013-01-14 08:24:00,
2013-01-14 03:29:00,44.6,43.8,29.18,NNW,341,0.0,0.0,97,0.00,,,0.00,VWS V14.01,2013-01-14 08:29:00,
2013-01-14 03:35:00,44.6,43.8,29.18,NNW,341,0.0,0.0,97,0.00,,,0.00,VWS V14.01,2013-01-14 08:35:00,
2013-01-14 03:41:00,44.4,43.6,29.18,NNW,341,0.0,0.0,97,0.00,,,0.00,VWS V14.01,2013-01-14 08:41:00,
2013-01-14 03:46:00,44.4,43.6,29.18,NNW,341,0.0,0.0,97,0.00,,,0.00,VWS V14.01,2013-01-14 08:46:00,
2013-01-14 03:52:00,44.4,43.6,29.18,NNW,341,0.0,0.0,97,0.00,,,0.00,VWS V14.01,2013-01-14 08:52:00,
2013-01-14 03:57:00,44.2,43.4,29.18,NNW,341,0.0,0.0,97,0.00,,,0.00,VWS V14.01,2013-01-14 08:57:00,
2013-01-14 04:03:00,44.4,43.6,29.15,NNW,341,0.0,0.0,97,0.00,,,0.00,VWS V14.01,2013-01-14 09:03:00,
2013-01-14 04:08:00,44.6,43.8,29.15,NNW,341,0.0,0.0,97,0.00,,,0.00,VWS V14.01,2013-01-14 09:08:00,
2013-01-14 04:14:00,44.8,44.0,29.18,NNW,341,0.0,0.0,97,0.00,,,0.00,VWS V14.01,2013-01-14 09:14:00,
2013-01-14 04:19:00,44.8,44.0,29.18,NNW,341,0.0,0.0,97,0.00,,,0.00,VWS V14.01,2013-01-14 09:19:00,
2013-01-14 04:25:00,44.8,44.0,29.18,NNW,341,0.0,0.0,97,0.00,,,0.00,VWS V14.01,2013-01-14 09:25:00,
2013-01-14 04:31:00,45.0,44.2,29.18,NNW,341,0.0,0.0,97,0.00,,,0.00,VWS V14.01,2013-01-14 09:31:00,
2013-01-14 04:36:00,45.0,44.2,29.18,NNW,341,0.0,0.0,97,0.00,,,0.00,VWS V14.01,2013-01-14 09:36:00,
2013-01-14 04:42:00,45.0,44.2,29.18,NNW,341,0.0,0.0,97,0.00,,,0.00,VWS V14.01,2013-01-14 09:42:00,
2013-01-14 04:47:00,45.0,44.2,29.15,NNW,341,0.0,0.0,97,0.00,,,0.00,VWS V14.01,2013-01-14 09:47:00,
2013-01-14 04:53:00,45.0,44.2,29.15,NNW,341,0.0,0.0,97,0.00,,,0.00,VWS V14.01,2013-01-14 09:53:00,
2013-01-14 04:58:00,45.1,44.3,29.15,NNW,341,0.0,0.0,97,0.00,,,0.00,VWS V14.01,2013-01-14 09:58:00,
2013-01-14 05:04:00,45.0,44.2,29.15,NNW,341,0.0,0.0,97,0.00,,,0.00,VWS V14.01,2013-01-14 10:04:00,
2013-01-14 05:09:00,45.1,44.3,29.15,NNW,341,0.0,0.0,97,0.00,,,0.00,VWS V14.01,2013-01-14 10:09:00,
2013-01-14 05:15:00,45.1,44.3,29.12,NNW,341,0.0,0.0,97,0.00,,,0.00,VWS V14.01,2013-01-14 10:15:00,
2013-01-14 05:21:00,45.1,44.3,29.12,NNW,341,0.0,0.0,97,0.00,,,0.00,VWS V14.01,2013-01-14 10:21:00,
2013-01-14 05:26:00,45.1,44.3,29.12,SSE,159,0.0,3.1,97,0.00,,,0.00,VWS V14.01,2013-01-14 10:26:00,
2013-01-14 05:32:00,45.1,44.3,29.12,SSE,160,0.0,0.0,97,0.00,,,0.00,VWS V14.01,2013-01-14 10:32:00,
2013-01-14 05:37:00,45.1,44.3,29.12,SSE,160,0.0,0.0,97,0.00,,,0.00,VWS V14.01,2013-01-14 10:37:00,
2013-01-14 05:43:00,45.1,44.3,29.12,SSE,157,0.0,4.0,97,0.00,,,0.00,VWS V14.01,2013-01-14 10:43:00,
2013-01-14 05:48:00,45.3,44.5,29.09,SE,146,0.0,4.5,97,0.00,,,0.00,VWS V14.01,2013-01-14 10:48:00,
2013-01-14 05:54:00,45.3,44.5,29.09,SE,143,5.4,5.4,97,0.00,,,0.00,VWS V14.01,2013-01-14 10:54:00,
2013-01-14 05:59:00,45.5,44.7,29.09,ESE,107,0.0,4.0,97,0.00,,,0.00,VWS V14.01,2013-01-14 10:59:00,
2013-01-14 06:05:00,45.7,44.9,29.09,West,271,2.7,3.6,97,0.00,,,0.00,VWS V14.01,2013-01-14 11:05:00,
2013-01-14 06:11:00,45.5,44.7,29.09,WNW,302,0.0,0.0,97,0.00,,,0.00,VWS V14.01,2013-01-14 11:11:00,
2013-01-14 06:16:00,45.5,44.7,29.15,SSE,161,0.0,4.0,97,0.00,,,0.00,VWS V14.01,2013-01-14 11:16:00,
2013-01-14 06:22:00,45.5,44.7,29.15,SE,139,3.1,3.6,97,0.00,,,0.00,VWS V14.01,2013-01-14 11:22:00,
2013-01-14 06:27:00,45.7,44.9,29.15,SE,139,0.0,0.0,97,0.00,,,0.00,VWS V14.01,2013-01-14 11:27:00,
2013-01-14 06:33:00,45.5,44.7,29.12,SE,140,0.0,0.0,97,0.00,,,0.00,VWS V14.01,2013-01-14 11:33:00,
2013-01-14 06:38:00,45.7,44.9,29.12,SE,139,0.0,0.0,97,0.00,,,0.00,VWS V14.01,2013-01-14 11:38:00,
2013-01-14 06:44:00,45.9,45.1,29.15,NW,326,0.0,0.0,97,0.00,,,0.00,VWS V14.01,2013-01-14 11:44:00,
2013-01-14 06:49:00,46.0,45.2,29.15,NE,44,0.0,0.0,97,0.00,,,0.00,VWS V14.01,2013-01-14 11:49:00,
2013-01-14 06:55:00,46.0,45.2,29.15,NE,44,0.0,0.0,97,0.00,,,0.00,VWS V14.01,2013-01-14 11:55:00,
2013-01-14 07:01:00,46.0,45.2,29.15,SE,144,0.0,0.0,97,0.00,,,0.00,VWS V14.01,2013-01-14 12:01:00,
2013-01-14 07:06:00,46.0,45.2,29.15,SE,144,0.0,0.0,97,0.00,,,0.00,VWS V14.01,2013-01-14 12:06:00,
2013-01-14 07:12:00,46.0,45.2,29.15,SE,144,0.0,0.0,97,0.00,,,0.00,VWS V14.01,2013-01-14 12:12:00,
2013-01-14 07:17:00,46.0,45.2,29.15,SE,144,0.0,0.0,97,0.00,,,0.00,VWS V14.01,2013-01-14 12:17:00,
2013-01-14 07:23:00,46.2,45.4,29.15,SE,145,0.0,0.0,97,0.00,,,0.00,VWS V14.01,2013-01-14 12:23:00,
2013-01-14 07:28:00,46.2,45.4,29.15,SE,145,0.0,0.0,97,0.00,,,0.00,VWS V14.01,2013-01-14 12:28:00,
2013-01-14 07:34:00,46.2,45.4,29.15,SE,144,0.0,0.0,97,0.00,,,0.00,VWS V14.01,2013-01-14 12:34:00,
2013-01-14 07:39:00,46.4,45.6,29.15,SE,144,0.0,0.0,97,0.00,,,0.00,VWS V14.01,2013-01-14 12:39:00,
2013-01-14 07:45:00,46.4,45.6,29.18,SE,144,0.0,0.0,97,0.00,,,0.00,VWS V14.01,2013-01-14 12:45:00,
2013-01-14 07:51:00,46.4,45.6,29.18,SE,144,0.0,0.0,97,0.00,,,0.00,VWS V14.01,2013-01-14 12:51:00,
2013-01-14 07:56:00,46.4,45.6,29.18,SE,144,0.0,0.0,97,0.00,,,0.00,VWS V14.01,2013-01-14 12:56:00,
2013-01-14 08:02:00,46.4,45.6,29.18,SE,145,0.0,0.0,97,0.00,,,0.00,VWS V14.01,2013-01-14 13:02:00,
2013-01-14 08:07:00,46.4,45.6,29.18,SE,144,0.0,0.0,97,0.00,,,0.00,VWS V14.01,2013-01-14 13:07:00,
2013-01-14 08:13:00,46.4,45.6,29.18,SE,144,0.0,0.0,97,0.00,,,0.00,VWS V14.01,2013-01-14 13:13:00,
2013-01-14 08:18:00,46.4,45.6,29.18,SE,145,0.0,0.0,97,0.00,,,0.00,VWS V14.01,2013-01-14 13:18:00,
2013-01-14 08:24:00,46.6,45.8,29.18,SE,145,0.0,0.0,97,0.00,,,0.00,VWS V14.01,2013-01-14 13:24:00,
2013-01-14 08:29:00,46.6,45.8,29.21,SE,144,0.0,0.0,97,0.00,,,0.00,VWS V14.01,2013-01-14 13:29:00,
2013-01-14 08:35:00,46.8,46.0,29.21,SE,145,0.0,0.0,97,0.00,,,0.00,VWS V14.01,2013-01-14 13:35:00,
2013-01-14 08:40:00,46.8,46.0,29.21,SE,144,0.0,0.0,97,0.00,,,0.00,VWS V14.01,2013-01-14 13:40:00,
2013-01-14 08:46:00,46.9,46.1,29.21,SE,144,0.0,0.0,97,0.00,,,0.00,VWS V14.01,2013-01-14 13:46:00,
2013-01-14 08:52:00,46.9,46.1,29.21,SE,144,0.0,0.0,97,0.00,,,0.00,VWS V14.01,2013-01-14 13:52:00,
2013-01-14 08:57:00,46.9,46.1,29.21,SE,144,0.0,0.0,97,0.00,,,0.00,VWS V14.01,2013-01-14 13:57:00,
2013-01-14 09:03:00,47.1,46.3,29.21,SE,145,0.0,0.0,97,0.00,,,0.00,VWS V14.01,2013-01-14 14:03:00,
2013-01-14 09:08:00,47.3,46.5,29.21,SE,144,0.0,0.0,97,0.00,,,0.00,VWS V14.01,2013-01-14 14:08:00,
2013-01-14 09:14:00,47.5,46.7,29.21,SE,144,0.0,0.0,97,0.00,,,0.00,VWS V14.01,2013-01-14 14:14:00,
2013-01-14 09:19:00,47.7,46.8,29.21,SE,144,0.0,0.0,97,0.00,,,0.00,VWS V14.01,2013-01-14 14:19:00,
2013-01-14 09:25:00,48.2,47.4,29.21,SE,145,0.0,3.1,97,0.00,,,0.00,VWS V14.01,2013-01-14 14:25:00,
2013-01-14 09:31:00,48.6,47.8,29.21,SE,144,0.0,0.0,97,0.00,,,0.00,VWS V14.01,2013-01-14 14:31:00,
2013-01-14 09:36:00,48.7,47.9,29.21,SE,145,0.0,0.0,97,0.00,,,0.00,VWS V14.01,2013-01-14 14:36:00,
2013-01-14 09:42:00,49.3,48.5,29.21,SE,144,0.0,0.0,97,0.00,,,0.00,VWS V14.01,2013-01-14 14:42:00,
2013-01-14 09:47:00,49.6,48.8,29.21,SE,144,0.0,0.0,97,0.00,,,0.00,VWS V14.01,2013-01-14 14:47:00,
2013-01-14 09:53:00,50.0,49.2,29.21,SE,145,0.0,0.0,97,0.00,,,0.00,VWS V14.01,2013-01-14 14:53:00,
2013-01-14 09:58:00,50.4,49.5,29.21,SE,145,0.0,0.0,97,0.00,,,0.00,VWS V14.01,2013-01-14 14:58:00,
2013-01-14 10:04:00,51.4,50.6,29.21,SE,144,0.0,0.0,97,0.00,,,0.00,VWS V14.01,2013-01-14 15:04:00,
2013-01-14 10:09:00,51.6,50.8,29.21,SE,144,0.0,0.0,97,0.00,,,0.00,VWS V14.01,2013-01-14 15:09:00,
2013-01-14 10:15:00,51.4,50.6,29.21,North,9,0.0,0.0,97,0.00,,,0.00,VWS V14.01,2013-01-14 15:15:00,
2013-01-14 10:21:00,51.3,50.4,29.21,North,9,0.0,0.0,97,0.00,,,0.00,VWS V14.01,2013-01-14 15:21:00,
2013-01-14 10:26:00,51.4,50.6,29.21,North,9,0.0,0.0,97,0.00,,,0.00,VWS V14.01,2013-01-14 15:26:00,
2013-01-14 10:32:00,51.4,50.6,29.21,North,9,0.0,0.0,97,0.00,,,0.00,VWS V14.01,2013-01-14 15:32:00,
2013-01-14 10:37:00,51.6,50.8,29.21,North,9,0.0,0.0,97,0.00,,,0.00,VWS V14.01,2013-01-14 15:37:00,
2013-01-14 10:43:00,51.6,50.8,29.21,North,9,0.0,0.0,97,0.00,,,0.00,VWS V14.01,2013-01-14 15:43:00,
2013-01-14 10:48:00,51.8,51.0,29.23,North,9,0.0,0.0,97,0.00,,,0.00,VWS V14.01,2013-01-14 15:48:00,
2013-01-14 10:54:00,52.2,51.3,29.23,North,9,0.0,0.0,97,0.00,,,0.00,VWS V14.01,2013-01-14 15:54:00,
2013-01-14 10:59:00,52.2,51.3,29.21,North,9,0.0,0.0,97,0.00,,,0.00,VWS V14.01,2013-01-14 15:59:00,
2013-01-14 11:05:00,52.2,51.3,29.21,North,9,0.0,0.0,97,0.00,,,0.00,VWS V14.01,2013-01-14 16:05:00,
2013-01-14 11:11:00,52.3,51.5,29.21,North,9,0.0,0.0,97,0.00,,,0.00,VWS V14.01,2013-01-14 16:11:00,
2013-01-14 11:16:00,52.3,51.5,29.23,North,9,0.0,0.0,97,0.00,,,0.00,VWS V14.01,2013-01-14 16:16:00,
2013-01-14 11:22:00,52.7,51.9,29.23,North,9,0.0,0.0,97,0.00,,,0.00,VWS V14.01,2013-01-14 16:22:00,
2013-01-14 11:27:00,52.7,51.9,29.23,North,10,0.0,0.0,97,0.00,,,0.00,VWS V14.01,2013-01-14 16:27:00,
2013-01-14 11:33:00,52.5,51.7,29.23,North,10,0.0,0.0,97,0.00,,,0.00,VWS V14.01,2013-01-14 16:33:00,
2013-01-14 11:39:00,52.2,51.3,29.23,North,10,0.0,2.7,97,0.00,,,0.00,VWS V14.01,2013-01-14 16:39:00,
2013-01-14 11:44:00,52.0,51.2,29.23,North,11,0.0,0.0,97,0.00,,,0.00,VWS V14.01,2013-01-14 16:44:00,
2013-01-14 11:49:00,52.7,51.9,29.23,North,11,0.0,0.0,97,0.00,,,0.00,VWS V14.01,2013-01-14 16:49:00,
2013-01-14 11:55:00,53.1,52.2,29.23,ENE,71,0.0,0.0,97,0.00,,,0.00,VWS V14.01,2013-01-14 16:55:00,
2013-01-14 12:01:00,52.9,52.0,29.23,North,0,0.0,0.0,97,0.00,,,0.00,VWS V14.01,2013-01-14 17:01:00,
2013-01-14 12:06:00,52.7,51.9,29.23,North,0,0.0,0.0,97,0.00,,,0.00,VWS V14.01,2013-01-14 17:06:00,
2013-01-14 12:12:00,53.1,52.2,29.23,NW,313,0.0,4.5,97,0.00,,,0.00,VWS V14.01,2013-01-14 17:12:00,
2013-01-14 12:17:00,52.9,52.0,29.23,North,0,0.0,4.0,97,0.00,,,0.00,VWS V14.01,2013-01-14 17:17:00,
2013-01-14 12:23:00,52.9,52.0,29.23,NE,50,0.0,0.0,97,0.00,,,0.00,VWS V14.01,2013-01-14 17:23:00,
2013-01-14 12:28:00,53.2,52.4,29.23,North,4,0.0,0.0,97,0.00,,,0.00,VWS V14.01,2013-01-14 17:28:00,
2013-01-14 12:34:00,53.1,52.2,29.23,North,4,0.0,0.0,97,0.00,,,0.00,VWS V14.01,2013-01-14 17:34:00,
2013-01-14 12:39:00,53.1,49.9,29.23,North,4,0.0,0.0,89,0.00,,,0.00,VWS V14.01,2013-01-14 17:39:00,
2013-01-14 12:45:00,53.1,49.6,29.23,North,4,0.0,0.0,88,0.00,,,0.00,VWS V14.01,2013-01-14 17:45:00,
2013-01-14 12:51:00,52.7,44.3,29.23,North,4,0.0,0.0,73,0.00,,,0.00,VWS V14.01,2013-01-14 17:51:00,
2013-01-14 12:56:00,52.2,42.3,29.23,North,4,0.0,0.0,69,0.00,,,0.00,VWS V14.01,2013-01-14 17:56:00,
2013-01-14 13:02:00,51.1,42.0,29.23,North,4,4.0,5.4,71,0.00,,,0.00,VWS V14.01,2013-01-14 18:02:00,
2013-01-14 13:07:00,50.5,43.3,29.23,North,351,4.9,6.3,76,0.00,,,0.00,VWS V14.01,2013-01-14 18:07:00,
2013-01-14 13:13:00,50.2,43.3,29.23,North,0,4.9,5.8,77,0.00,,,0.00,VWS V14.01,2013-01-14 18:13:00,
2013-01-14 13:18:00,50.2,43.6,29.23,North,0,3.6,3.6,78,0.00,,,0.00,VWS V14.01,2013-01-14 18:18:00,
2013-01-14 13:24:00,50.0,43.4,29.23,North,0,0.0,6.3,78,0.00,,,0.00,VWS V14.01,2013-01-14 18:24:00,
2013-01-14 13:29:00,50.2,43.3,29.23,North,5,2.7,4.0,77,0.00,,,0.00,VWS V14.01,2013-01-14 18:29:00,
2013-01-14 13:35:00,50.2,42.6,29.23,North,2,3.1,4.9,75,0.00,,,0.00,VWS V14.01,2013-01-14 18:35:00,
2013-01-14 13:41:00,50.0,41.7,29.23,North,3,0.0,4.9,73,0.00,,,0.00,VWS V14.01,2013-01-14 18:41:00,
2013-01-14 13:46:00,50.0,41.3,29.26,North,1,4.0,5.4,72,0.00,,,0.00,VWS V14.01,2013-01-14 18:46:00,
2013-01-14 13:52:00,50.2,41.5,29.26,North,1,0.0,0.0,72,0.00,,,0.00,VWS V14.01,2013-01-14 18:52:00,
2013-01-14 13:57:00,50.2,41.5,29.26,North,0,0.0,4.9,72,0.00,,,0.00,VWS V14.01,2013-01-14 18:57:00,
2013-01-14 14:03:00,50.5,42.2,29.26,North,0,3.1,4.0,73,0.00,,,0.00,VWS V14.01,2013-01-14 19:03:00,
2013-01-14 14:08:00,49.8,39.7,29.26,North,5,4.0,4.0,68,0.00,,,0.00,VWS V14.01,2013-01-14 19:08:00,
2013-01-14 14:14:00,49.5,37.8,29.26,North,10,2.7,2.7,64,0.00,,,0.00,VWS V14.01,2013-01-14 19:14:00,
2013-01-14 14:19:00,49.1,36.7,29.26,North,8,0.0,0.0,62,0.00,,,0.00,VWS V14.01,2013-01-14 19:19:00,
2013-01-14 14:24:00,48.7,34.6,29.26,North,351,0.0,0.0,58,0.00,,,0.00,VWS V14.01,2013-01-14 19:24:00,
2013-01-14 14:29:00,48.7,34.2,29.29,North,351,3.6,4.5,57,0.00,,,0.00,VWS V14.01,2013-01-14 19:29:00,
2013-01-14 14:35:00,48.7,33.8,29.29,North,0,0.0,0.0,56,0.00,,,0.00,VWS V14.01,2013-01-14 19:35:00,
2013-01-14 14:41:00,48.6,32.7,29.29,North,0,0.0,3.6,54,0.00,,,0.00,VWS V14.01,2013-01-14 19:41:00,
2013-01-14 14:46:00,48.6,32.2,29.29,NNW,343,5.4,6.3,53,0.00,,,0.00,VWS V14.01,2013-01-14 19:46:00,
2013-01-14 14:52:00,48.6,31.8,29.29,North,351,4.5,5.4,52,0.00,,,0.00,VWS V14.01,2013-01-14 19:52:00,
2013-01-14 14:57:00,48.6,31.8,29.29,North,351,4.5,5.4,52,0.00,,,0.00,VWS V14.01,2013-01-14 19:57:00,
2013-01-14 15:03:00,48.4,31.1,29.29,North,0,6.3,6.3,51,0.00,,,0.00,VWS V14.01,2013-01-14 20:03:00,
2013-01-14 15:08:00,48.4,29.6,29.29,North,351,3.1,7.8,48,0.00,,,0.00,VWS V14.01,2013-01-14 20:08:00,
2013-01-14 15:14:00,48.0,27.7,29.29,North,1,4.0,6.3,45,0.00,,,0.00,VWS V14.01,2013-01-14 20:14:00,
2013-01-14 15:19:00,48.2,26.2,29.29,North,0,0.0,0.0,42,0.00,,,0.00,VWS V14.01,2013-01-14 20:19:00,
2013-01-14 15:25:00,47.8,25.3,29.29,NNW,347,0.0,4.9,41,0.00,,,0.00,VWS V14.01,2013-01-14 20:25:00,
2013-01-14 15:30:00,47.8,26.4,29.29,North,351,0.0,0.0,43,0.00,,,0.00,VWS V14.01,2013-01-14 20:30:00,
2013-01-14 15:36:00,47.5,26.7,29.29,North,351,0.0,0.0,44,0.00,,,0.00,VWS V14.01,2013-01-14 20:36:00,
2013-01-14 15:42:00,47.1,24.6,29.29,North,0,0.0,4.9,41,0.00,,,0.00,VWS V14.01,2013-01-14 20:42:00,
2013-01-14 15:47:00,46.9,23.9,29.29,NNE,19,0.0,0.0,40,0.00,,,0.00,VWS V14.01,2013-01-14 20:47:00,
2013-01-14 15:53:00,46.6,23.0,29.29,North,351,3.1,4.0,39,0.00,,,0.00,VWS V14.01,2013-01-14 20:53:00,
2013-01-14 15:58:00,46.4,22.8,29.29,North,351,0.0,4.9,39,0.00,,,0.00,VWS V14.01,2013-01-14 20:58:00,
2013-01-14 16:04:00,46.0,23.7,29.32,North,351,0.0,4.9,41,0.00,,,0.00,VWS V14.01,2013-01-14 21:04:00,
2013-01-14 16:09:00,45.5,22.0,29.32,North,351,4.0,5.8,39,0.00,,,0.00,VWS V14.01,2013-01-14 21:09:00,
2013-01-14 16:15:00,45.3,21.8,29.32,North,351,0.0,0.0,39,0.00,,,0.00,VWS V14.01,2013-01-14 21:15:00,
2013-01-14 16:20:00,45.0,21.5,29.32,North,0,6.3,6.3,39,0.00,,,0.00,VWS V14.01,2013-01-14 21:20:00,
2013-01-14 16:26:00,44.6,21.8,29.32,North,351,0.0,4.9,40,0.00,,,0.00,VWS V14.01,2013-01-14 21:26:00,
2013-01-14 16:32:00,44.2,21.5,29.32,North,351,0.0,0.0,40,0.00,,,0.00,VWS V14.01,2013-01-14 21:32:00,
2013-01-14 16:37:00,44.1,21.9,29.32,North,351,0.0,0.0,41,0.00,,,0.00,VWS V14.01,2013-01-14 21:37:00,
2013-01-14 16:43:00,43.7,21.6,29.32,North,351,0.0,0.0,41,0.00,,,0.00,VWS V14.01,2013-01-14 21:43:00,
2013-01-14 16:48:00,43.3,21.2,29.32,NNW,345,0.0,0.0,41,0.00,,,0.00,VWS V14.01,2013-01-14 21:48:00,
2013-01-14 16:54:00,43.0,20.9,29.32,North,351,0.0,0.0,41,0.00,,,0.00,VWS V14.01,2013-01-14 21:54:00,
2013-01-14 16:59:00,42.6,20.6,29.32,North,351,0.0,0.0,41,0.00,,,0.00,VWS V14.01,2013-01-14 21:59:00,
2013-01-14 17:05:00,42.4,21.0,29.32,NNE,14,0.0,0.0,42,0.00,,,0.00,VWS V14.01,2013-01-14 22:05:00,
2013-01-14 17:11:00,42.3,20.8,29.32,NNE,27,3.1,4.5,42,0.00,,,0.00,VWS V14.01,2013-01-14 22:11:00,
2013-01-14 17:16:00,42.3,19.7,29.32,NNW,344,0.0,4.0,40,0.00,,,0.00,VWS V14.01,2013-01-14 22:16:00,
2013-01-14 17:22:00,42.3,19.7,29.32,North,9,0.0,2.7,40,0.00,,,0.00,VWS V14.01,2013-01-14 22:22:00,
2013-01-14 17:27:00,41.9,19.4,29.32,NNE,26,4.5,5.8,40,0.00,,,0.00,VWS V14.01,2013-01-14 22:27:00,
2013-01-14 17:33:00,41.9,18.8,29.32,North,351,5.8,5.8,39,0.00,,,0.00,VWS V14.01,2013-01-14 22:33:00,
2013-01-14 17:38:00,41.7,18.6,29.32,North,5,2.7,2.7,39,0.00,,,0.00,VWS V14.01,2013-01-14 22:38:00,
2013-01-14 17:44:00,41.5,19.0,29.32,North,0,0.0,0.0,40,0.00,,,0.00,VWS V14.01,2013-01-14 22:44:00,
2013-01-14 17:49:00,41.0,18.5,29.32,North,0,0.0,0.0,40,0.00,,,0.00,VWS V14.01,2013-01-14 22:49:00,
2013-01-14 17:54:00,41.2,18.1,29.32,North,5,0.0,0.0,39,0.00,,,0.00,VWS V14.01,2013-01-14 22:54:00,
2013-01-14 18:00:00,41.2,18.1,29.32,North,351,0.0,0.0,39,0.00,,,0.00,VWS V14.01,2013-01-14 23:00:00,
2013-01-14 18:06:00,41.2,18.1,29.32,North,351,0.0,0.0,39,0.00,,,0.00,VWS V14.01,2013-01-14 23:06:00,
2013-01-14 18:12:00,41.2,18.1,29.32,NNE,21,0.0,0.0,39,0.00,,,0.00,VWS V14.01,2013-01-14 23:12:00,
2013-01-14 18:17:00,41.2,17.5,29.35,NNE,12,0.0,0.0,38,0.00,,,0.00,VWS V14.01,2013-01-14 23:17:00,
2013-01-14 18:23:00,41.0,18.0,29.35,NNE,12,0.0,0.0,39,0.00,,,0.00,VWS V14.01,2013-01-14 23:23:00,
2013-01-14 18:28:00,41.0,16.1,29.35,North,0,0.0,0.0,36,0.00,,,0.00,VWS V14.01,2013-01-14 23:28:00,
2013-01-14 18:34:00,40.8,16.6,29.35,North,2,0.0,0.0,37,0.00,,,0.00,VWS V14.01,2013-01-14 23:34:00,
2013-01-14 18:39:00,40.8,15.9,29.35,North,351,0.0,0.0,36,0.00,,,0.00,VWS V14.01,2013-01-14 23:39:00,
2013-01-14 18:45:00,40.6,15.1,29.35,NE,41,0.0,0.0,35,0.00,,,0.00,VWS V14.01,2013-01-14 23:45:00,
2013-01-14 18:50:00,40.5,16.3,29.35,North,11,0.0,0.0,37,0.00,,,0.00,VWS V14.01,2013-01-14 23:50:00,
2013-01-14 18:56:00,40.3,14.2,29.35,North,1,0.0,0.0,34,0.00,,,0.00,VWS V14.01,2013-01-14 23:56:00,
2013-01-14 19:02:00,40.1,14.7,29.38,North,0,3.6,6.3,35,0.00,,,0.00,VWS V14.01,2013-01-15 00:02:00,
2013-01-14 19:07:00,39.9,16.4,29.38,North,351,0.0,0.0,38,0.00,,,0.00,VWS V14.01,2013-01-15 00:07:00,
2013-01-14 19:13:00,39.9,16.4,29.38,North,351,0.0,0.0,38,0.00,,,0.00,VWS V14.01,2013-01-15 00:13:00,
2013-01-14 19:18:00,39.9,17.6,29.38,North,351,0.0,0.0,40,0.00,,,0.00,VWS V14.01,2013-01-15 00:18:00,
2013-01-14 19:24:00,39.7,16.8,29.38,North,351,0.0,0.0,39,0.00,,,0.00,VWS V14.01,2013-01-15 00:24:00,
2013-01-14 19:29:00,39.6,17.2,29.38,North,3,0.0,0.0,40,0.00,,,0.00,VWS V14.01,2013-01-15 00:29:00,
2013-01-14 19:35:00,39.4,15.9,29.38,North,351,0.0,0.0,38,0.00,,,0.00,VWS V14.01,2013-01-15 00:35:00,
2013-01-14 19:41:00,39.2,16.3,29.38,North,351,0.0,0.0,39,0.00,,,0.00,VWS V14.01,2013-01-15 00:41:00,
2013-01-14 19:46:00,38.8,14.8,29.41,North,2,0.0,0.0,37,0.00,,,0.00,VWS V14.01,2013-01-15 00:46:00,
2013-01-14 19:52:00,38.8,14.2,29.41,North,2,0.0,0.0,36,0.00,,,0.00,VWS V14.01,2013-01-15 00:52:00,
2013-01-14 19:57:00,38.7,14.0,29.41,North,2,0.0,0.0,36,0.00,,,0.00,VWS V14.01,2013-01-15 00:57:00,
2013-01-14 20:03:00,38.3,11.7,29.41,North,0,3.6,5.4,33,0.00,,,0.00,VWS V14.01,2013-01-15 01:03:00,
2013-01-14 20:08:00,38.1,13.5,29.41,North,2,0.0,3.6,36,0.00,,,0.00,VWS V14.01,2013-01-15 01:08:00,
2013-01-14 20:14:00,37.9,13.4,29.41,North,2,0.0,2.7,36,0.00,,,0.00,VWS V14.01,2013-01-15 01:14:00,
2013-01-14 20:19:00,37.9,14.6,29.41,NNE,23,0.0,0.0,38,0.00,,,0.00,VWS V14.01,2013-01-15 01:19:00,
2013-01-14 20:25:00,37.9,15.8,29.41,NNE,12,0.0,0.0,40,0.00,,,0.00,VWS V14.01,2013-01-15 01:25:00,
2013-01-14 20:30:00,37.2,16.8,29.41,North,351,0.0,0.0,43,0.00,,,0.00,VWS V14.01,2013-01-15 01:30:00,
2013-01-14 20:36:00,37.0,18.7,29.41,North,351,0.0,0.0,47,0.00,,,0.00,VWS V14.01,2013-01-15 01:36:00,
2013-01-14 20:42:00,36.7,19.3,29.41,North,351,0.0,0.0,49,0.00,,,0.00,VWS V14.01,2013-01-15 01:42:00,
2013-01-14 20:47:00,36.7,18.4,29.41,North,351,0.0,3.1,47,0.00,,,0.00,VWS V14.01,2013-01-15 01:47:00,
2013-01-14 20:53:00,36.3,19.0,29.41,NNE,16,0.0,0.0,49,0.00,,,0.00,VWS V14.01,2013-01-15 01:53:00,
2013-01-14 20:58:00,36.1,17.9,29.41,NNE,15,4.0,4.0,47,0.00,,,0.00,VWS V14.01,2013-01-15 01:58:00,
2013-01-14 21:04:00,35.8,19.0,29.41,NNE,16,0.0,3.6,50,0.00,,,0.00,VWS V14.01,2013-01-15 02:04:00,
2013-01-14 21:10:00,35.4,19.1,29.41,North,11,0.0,0.0,51,0.00,,,0.00,VWS V14.01,2013-01-15 02:10:00,
2013-01-14 21:15:00,35.4,19.1,29.41,North,0,5.8,6.3,51,0.00,,,0.00,VWS V14.01,2013-01-15 02:15:00,
2013-01-14 21:20:00,35.2,18.5,29.41,North,0,0.0,0.0,50,0.00,,,0.00,VWS V14.01,2013-01-15 02:20:00,
2013-01-14 21:26:00,35.2,18.0,29.41,North,0,0.0,0.0,49,0.00,,,0.00,VWS V14.01,2013-01-15 02:26:00,
2013-01-14 21:32:00,35.2,16.0,29.44,North,0,4.5,5.8,45,0.00,,,0.00,VWS V14.01,2013-01-15 02:32:00,
2013-01-14 21:37:00,35.1,15.9,29.44,North,10,0.0,0.0,45,0.00,,,0.00,VWS V14.01,2013-01-15 02:37:00,
2013-01-14 21:43:00,35.2,16.0,29.44,North,10,0.0,0.0,45,0.00,,,0.00,VWS V14.01,2013-01-15 02:43:00,
2013-01-14 21:48:00,35.2,16.0,29.44,North,10,0.0,0.0,45,0.00,,,0.00,VWS V14.01,2013-01-15 02:48:00,
2013-01-14 21:54:00,35.4,16.7,29.44,North,10,0.0,4.0,46,0.00,,,0.00,VWS V14.01,2013-01-15 02:54:00,
2013-01-14 21:59:00,35.2,13.9,29.44,North,10,3.6,3.6,41,0.00,,,0.00,VWS V14.01,2013-01-15 02:59:00,
2013-01-14 22:05:00,35.4,15.2,29.44,NE,56,0.0,0.0,43,0.00,,,0.00,VWS V14.01,2013-01-15 03:05:00,
2013-01-14 22:10:00,35.1,15.4,29.44,North,4,0.0,0.0,44,0.00,,,0.00,VWS V14.01,2013-01-15 03:10:00,
2013-01-14 22:16:00,35.4,15.2,29.44,North,4,0.0,0.0,43,0.00,,,0.00,VWS V14.01,2013-01-15 03:16:00,
2013-01-14 22:22:00,35.1,13.8,29.44,North,4,0.0,0.0,41,0.00,,,0.00,VWS V14.01,2013-01-15 03:22:00,
2013-01-14 22:27:00,35.2,13.4,29.44,North,4,0.0,0.0,40,0.00,,,0.00,VWS V14.01,2013-01-15 03:27:00,
2013-01-14 22:33:00,35.1,13.2,29.44,NE,47,0.0,0.0,40,0.00,,,0.00,VWS V14.01,2013-01-15 03:33:00,
2013-01-14 22:38:00,35.4,14.1,29.44,NNW,343,0.0,0.0,41,0.00,,,0.00,VWS V14.01,2013-01-15 03:38:00,
2013-01-14 22:44:00,35.1,13.8,29.41,NNW,343,0.0,0.0,41,0.00,,,0.00,VWS V14.01,2013-01-15 03:44:00,
2013-01-14 22:49:00,35.1,14.3,29.41,North,8,0.0,0.0,42,0.00,,,0.00,VWS V14.01,2013-01-15 03:49:00,
2013-01-14 22:55:00,34.7,14.5,29.41,North,8,0.0,0.0,43,0.00,,,0.00,VWS V14.01,2013-01-15 03:55:00,
2013-01-14 23:00:00,34.7,15.0,29.44,North,7,0.0,0.0,44,0.00,,,0.00,VWS V14.01,2013-01-15 04:00:00,
2013-01-14 23:06:00,34.7,15.6,29.44,North,8,0.0,0.0,45,0.00,,,0.00,VWS V14.01,2013-01-15 04:06:00,
2013-01-14 23:12:00,34.7,15.0,29.44,North,8,0.0,0.0,44,0.00,,,0.00,VWS V14.01,2013-01-15 04:12:00,
2013-01-14 23:17:00,34.5,14.3,29.44,North,8,0.0,0.0,43,0.00,,,0.00,VWS V14.01,2013-01-15 04:17:00,
2013-01-14 23:23:00,34.5,14.9,29.44,North,7,0.0,0.0,44,0.00,,,0.00,VWS V14.01,2013-01-15 04:23:00,
2013-01-14 23:28:00,34.5,14.9,29.44,North,8,0.0,0.0,44,0.00,,,0.00,VWS V14.01,2013-01-15 04:28:00,
2013-01-14 23:33:00,34.3,14.2,29.44,North,351,3.6,4.0,43,0.00,,,0.00,VWS V14.01,2013-01-15 04:33:00,
2013-01-14 23:39:00,34.3,14.7,29.44,North,351,0.0,0.0,44,0.00,,,0.00,VWS V14.01,2013-01-15 04:39:00,
2013-01-14 23:45:00,34.2,15.1,29.44,North,351,0.0,0.0,45,0.00,,,0.00,VWS V14.01,2013-01-15 04:45:00,
2013-01-14 23:50:00,34.0,15.4,29.44,North,351,0.0,0.0,46,0.00,,,0.00,VWS V14.01,2013-01-15 04:50:00,
2013-01-14 23:56:00,34.0,15.9,29.44,North,351,0.0,0.0,47,0.00,,,0.00,VWS V14.01,2013-01-15 04:56:00,